createdAt,value
2022-09-06T00:01:10.165Z,97.78
2022-09-06T00:03:38.181Z,98.39
2022-09-06T00:06:11.384Z,98.36
2022-09-06T00:08:39.646Z,97.36
2022-09-06T00:11:09.874Z,97.46
2022-09-06T00:13:38.866Z,97.89
2022-09-06T00:16:08.913Z,97.90
2022-09-06T00:18:37.172Z,98.37
2022-09-06T00:21:06.023Z,97.88
2022-09-06T00:23:34.154Z,97.17
2022-09-06T00:26:06.192Z,97.30
2022-09-06T00:28:35.806Z,98.28
2022-09-06T00:31:10.426Z,98.06
2022-09-06T00:33:38.766Z,97.68
2022-09-06T00:36:07.284Z,97.64
2022-09-06T00:38:35.774Z,98.24
2022-09-06T00:41:04.291Z,97.43
2022-09-06T00:43:33.094Z,98.04
2022-09-06T00:46:03.543Z,97.62
2022-09-06T00:48:31.969Z,97.20
2022-09-06T00:51:02.865Z,96.90
2022-09-06T00:53:32.339Z,97.40
2022-09-06T00:56:00.817Z,98.18
2022-09-06T00:58:29.692Z,97.86
2022-09-06T01:00:57.853Z,97.28
2022-09-06T01:03:27.661Z,97.58
2022-09-06T01:06:02.750Z,96.77
2022-09-06T01:08:40.821Z,97.43
2022-09-06T01:11:24.571Z,97.46
2022-09-06T01:14:00.368Z,96.97
2022-09-06T01:16:37.561Z,96.59
2022-09-06T01:19:41.905Z,96.96
2022-09-06T01:22:17.276Z,96.52
2022-09-06T01:25:02.640Z,97.69
2022-09-06T01:28:02.960Z,96.93
2022-09-06T01:30:33.962Z,97.00
2022-09-06T01:33:08.078Z,97.59
2022-09-06T01:35:40.849Z,97.74
2022-09-06T01:38:10.057Z,97.26
2022-09-06T01:40:38.205Z,97.18
2022-09-06T01:43:11.165Z,96.95
2022-09-06T01:45:44.160Z,96.95
2022-09-06T01:48:19.183Z,98.11
2022-09-06T01:51:01.662Z,97.77
2022-09-06T01:53:59.578Z,97.68
2022-09-06T01:56:34.266Z,97.37
2022-09-06T01:59:24.330Z,97.38
2022-09-06T02:02:00.957Z,97.06
2022-09-06T02:04:33.266Z,97.02
2022-09-06T02:07:02.890Z,97.69
2022-09-06T02:09:35.160Z,97.63
2022-09-06T02:12:04.364Z,96.94
2022-09-06T02:14:37.754Z,97.08
2022-09-06T02:17:06.436Z,96.71
2022-09-06T02:19:37.489Z,95.88
2022-09-06T02:22:09.750Z,96.32
2022-09-06T02:24:40.863Z,96.14
2022-09-06T02:27:09.560Z,96.01
2022-09-06T02:29:39.234Z,96.49
2022-09-06T02:32:10.128Z,96.64
2022-09-06T02:34:40.141Z,96.59
2022-09-06T02:37:08.867Z,97.25
2022-09-06T02:39:37.141Z,96.43
2022-09-06T02:42:05.890Z,97.20
2022-09-06T02:44:34.046Z,96.00
2022-09-06T02:47:04.051Z,96.15
2022-09-06T02:49:32.460Z,96.25
2022-09-06T02:52:00.655Z,96.38
2022-09-06T02:54:31.344Z,96.06
2022-09-06T02:56:59.511Z,96.44
2022-09-06T02:59:27.747Z,96.30
2022-09-06T03:01:56.044Z,96.61
2022-09-06T03:04:25.608Z,95.95
2022-09-06T03:06:53.774Z,95.08
2022-09-06T03:09:22.074Z,96.36
2022-09-06T03:11:50.220Z,95.71
2022-09-06T03:14:19.626Z,95.66
2022-09-06T03:16:47.897Z,96.22
2022-09-06T03:19:16.122Z,95.98
2022-09-06T03:21:45.967Z,94.91
2022-09-06T03:24:14.342Z,94.93
2022-09-06T03:26:42.495Z,95.12
2022-09-06T03:29:11.037Z,95.66
2022-09-06T03:31:39.288Z,94.56
2022-09-06T03:34:11.252Z,95.38
2022-09-06T03:36:39.717Z,95.46
2022-09-06T03:39:09.278Z,94.86
2022-09-06T03:41:38.326Z,95.77
2022-09-06T03:44:06.792Z,95.59
2022-09-06T03:46:34.924Z,94.91
2022-09-06T03:49:03.157Z,94.81
2022-09-06T03:51:31.486Z,95.37
2022-09-06T03:53:59.834Z,94.77
2022-09-06T03:56:29.490Z,94.99
2022-09-06T03:58:57.733Z,94.51
2022-09-06T04:01:25.997Z,93.85
2022-09-06T04:03:54.252Z,94.47
2022-09-06T04:06:22.545Z,94.13
2022-09-06T04:08:50.670Z,94.49
2022-09-06T04:11:18.842Z,92.44
2022-09-06T04:13:48.980Z,93.34
2022-09-06T04:16:18.813Z,93.99
2022-09-06T04:18:47.057Z,93.26
2022-09-06T04:21:15.416Z,93.51
2022-09-06T04:23:43.561Z,93.19
2022-09-06T04:26:12.126Z,93.45
2022-09-06T04:28:40.456Z,92.00
2022-09-06T04:31:11.213Z,91.82
2022-09-06T04:33:39.685Z,91.41
2022-09-06T04:36:09.715Z,91.95
2022-09-06T04:38:39.602Z,90.91
2022-09-06T04:41:08.333Z,91.61
2022-09-06T04:43:36.757Z,91.46
2022-09-06T04:46:06.775Z,90.89
2022-09-06T04:48:36.522Z,90.73
2022-09-06T04:51:04.690Z,88.99
2022-09-06T04:53:33.348Z,89.80
2022-09-06T04:56:01.593Z,90.18
2022-09-06T04:58:29.976Z,89.34
2022-09-06T05:00:58.254Z,89.03
2022-09-06T05:03:26.575Z,89.56
2022-09-06T05:06:05.605Z,89.30
2022-09-06T05:08:33.928Z,89.17
2022-09-06T05:11:02.092Z,87.88
2022-09-06T05:13:30.389Z,88.17
2022-09-06T05:16:02.008Z,87.47
2022-09-06T05:18:30.430Z,88.06
2022-09-06T05:21:00.448Z,86.90
2022-09-06T05:23:29.264Z,87.45
2022-09-06T05:25:57.458Z,87.26
2022-09-06T05:28:25.792Z,86.70
2022-09-06T05:30:54.264Z,86.25
2022-09-06T05:33:23.854Z,85.18
2022-09-06T05:35:51.988Z,84.48
2022-09-06T05:38:21.659Z,86.64
2022-09-06T05:40:49.882Z,84.25
2022-09-06T05:43:18.049Z,84.88
2022-09-06T05:45:46.399Z,83.48
2022-09-06T05:48:14.609Z,83.53
2022-09-06T05:50:42.816Z,83.71
2022-09-06T05:53:11.041Z,83.50
2022-09-06T05:55:42.991Z,82.62
2022-09-06T05:58:11.437Z,83.71
2022-09-06T06:00:40.095Z,82.47
2022-09-06T06:03:08.451Z,82.19
2022-09-06T06:05:38.494Z,81.74
2022-09-06T06:08:06.686Z,81.39
2022-09-06T06:10:38.506Z,81.72
2022-09-06T06:13:08.380Z,79.85
2022-09-06T06:15:36.571Z,81.63
2022-09-06T06:18:04.862Z,81.36
2022-09-06T06:20:33.115Z,79.86
2022-09-06T06:23:01.262Z,79.86
2022-09-06T06:25:29.463Z,79.75
2022-09-06T06:27:57.750Z,79.50
2022-09-06T06:30:28.498Z,80.49
2022-09-06T06:32:58.627Z,79.24
2022-09-06T06:35:26.963Z,78.98
2022-09-06T06:37:56.463Z,77.45
2022-09-06T06:40:24.702Z,79.98
2022-09-06T06:42:52.864Z,77.83
2022-09-06T06:45:22.318Z,78.47
2022-09-06T06:47:52.761Z,79.00
2022-09-06T06:50:20.941Z,78.36
2022-09-06T06:52:49.088Z,77.80
2022-09-06T06:55:17.438Z,76.24
2022-09-06T06:57:45.600Z,78.24
2022-09-06T07:00:14.509Z,77.79
2022-09-06T07:02:42.793Z,78.55
2022-09-06T07:08:00.895Z,81.02
2022-09-06T07:13:00.534Z,83.31
2022-09-06T07:15:28.782Z,83.58
2022-09-06T07:17:57.252Z,83.29
2022-09-06T07:20:27.357Z,86.79
2022-09-06T07:25:50.659Z,91.85
2022-09-06T07:28:18.958Z,88.90
2022-09-06T07:30:50.406Z,90.57
2022-09-06T07:33:19.232Z,86.53
2022-09-06T07:35:57.830Z,89.59
2022-09-06T07:38:26.539Z,80.11
2022-09-06T07:40:55.160Z,80.36
2022-09-06T07:43:23.765Z,85.33
2022-09-06T07:46:00.181Z,79.96
2022-09-06T07:48:29.731Z,75.03
2022-09-06T07:51:04.828Z,71.91
2022-09-06T07:53:33.224Z,74.63
2022-09-06T07:56:02.056Z,73.97
2022-09-06T07:58:31.147Z,76.67
2022-09-06T08:01:28.246Z,72.15
2022-09-06T08:03:56.826Z,70.47
2022-09-06T08:06:27.240Z,75.94
2022-09-06T08:11:26.093Z,73.71
2022-09-06T08:13:55.912Z,69.22
2022-09-06T08:16:25.567Z,70.71
2022-09-06T08:18:54.421Z,74.51
2022-09-06T08:21:24.743Z,74.33
2022-09-06T08:23:56.561Z,66.70
2022-09-06T08:26:26.081Z,71.38
2022-09-06T08:28:56.017Z,76.07
2022-09-06T08:31:24.281Z,74.06
2022-09-06T08:33:53.128Z,74.33
2022-09-06T08:36:22.180Z,76.79
2022-09-06T08:38:50.370Z,72.88
2022-09-06T08:41:27.610Z,75.66
2022-09-06T08:46:52.406Z,71.78
2022-09-06T08:49:20.585Z,76.63
2022-09-06T08:52:10.061Z,74.68
2022-09-06T08:54:41.584Z,73.57
2022-09-06T08:57:16.950Z,75.45
2022-09-06T08:59:45.090Z,71.95
2022-09-06T09:02:15.373Z,74.76
2022-09-06T09:04:46.226Z,76.23
2022-09-06T09:07:25.025Z,71.96
2022-09-06T09:09:53.882Z,73.92
2022-09-06T09:12:24.607Z,65.80
2022-09-06T09:14:55.185Z,69.97
2022-09-06T09:17:26.948Z,73.12
2022-09-06T09:19:56.919Z,75.34
2022-09-06T09:22:26.425Z,74.60
2022-09-06T09:24:54.763Z,73.31
2022-09-06T09:27:26.079Z,72.52
2022-09-06T09:32:53.945Z,73.93
2022-09-06T09:35:25.520Z,72.64
2022-09-06T09:38:07.979Z,72.51
2022-09-06T09:40:41.978Z,71.52
2022-09-06T09:43:15.745Z,72.97
2022-09-06T09:45:44.555Z,71.53
2022-09-06T09:48:27.514Z,71.46
2022-09-06T09:50:56.187Z,72.49
2022-09-06T09:53:26.273Z,72.03
2022-09-06T09:55:59.110Z,73.42
2022-09-06T09:58:34.492Z,70.65
2022-09-06T10:01:19.601Z,71.38
2022-09-06T10:09:31.775Z,74.82
2022-09-06T10:12:00.722Z,76.26
2022-09-06T10:14:32.769Z,77.53
2022-09-06T10:17:01.612Z,75.36
2022-09-06T10:19:40.886Z,73.87
2022-09-06T10:22:33.253Z,71.44
2022-09-06T10:25:33.838Z,72.09
2022-09-06T10:28:32.518Z,72.38
2022-09-06T10:31:25.118Z,72.78
2022-09-06T10:34:10.798Z,72.73
2022-09-06T10:36:41.487Z,73.09
2022-09-06T10:39:18.905Z,73.18
2022-09-06T10:41:59.127Z,70.01
2022-09-06T10:44:43.520Z,71.39
2022-09-06T10:47:22.062Z,72.89
2022-09-06T10:49:54.618Z,71.62
2022-09-06T10:52:26.847Z,71.43
2022-09-06T10:55:02.412Z,70.85
2022-09-06T11:00:25.272Z,71.55
2022-09-06T11:05:53.920Z,73.36
2022-09-06T11:11:14.853Z,73.09
2022-09-06T11:13:43.030Z,72.07
2022-09-06T11:16:16.854Z,71.88
2022-09-06T11:18:49.821Z,70.78
2022-09-06T11:21:46.839Z,72.09
2022-09-06T11:24:16.110Z,70.18
2022-09-06T11:26:45.668Z,70.31
2022-09-06T11:29:20.301Z,69.59
2022-09-06T11:34:45.998Z,69.42
2022-09-06T11:37:25.831Z,69.62
2022-09-06T11:43:18.501Z,69.53
2022-09-06T11:45:49.526Z,70.21
2022-09-06T11:48:50.034Z,69.53
2022-09-06T11:51:36.392Z,69.67
2022-09-06T11:54:37.015Z,71.46
2022-09-06T11:57:14.279Z,71.15
2022-09-06T11:59:50.177Z,70.24
2022-09-06T12:02:37.477Z,71.21
2022-09-06T12:05:22.303Z,71.91
2022-09-06T12:08:24.068Z,72.42
2022-09-06T12:11:21.906Z,72.08
2022-09-06T12:13:58.338Z,71.94
2022-09-06T12:16:27.801Z,73.70
2022-09-06T12:19:02.559Z,74.59
2022-09-06T12:21:43.762Z,74.70
2022-09-06T12:24:55.336Z,73.48
2022-09-06T12:27:23.868Z,74.60
2022-09-06T12:30:02.097Z,73.09
2022-09-06T12:32:36.795Z,73.73
2022-09-06T12:37:57.684Z,73.71
2022-09-06T12:40:27.730Z,72.73
2022-09-06T12:42:58.059Z,72.22
2022-09-06T12:45:28.058Z,72.02
2022-09-06T12:48:08.687Z,72.67
2022-09-06T12:50:37.554Z,71.37
2022-09-06T12:53:22.767Z,75.02
2022-09-06T12:56:04.192Z,72.10
2022-09-06T12:58:32.408Z,71.71
2022-09-06T13:01:09.956Z,71.44
2022-09-06T13:03:41.807Z,71.12
2022-09-06T13:06:14.328Z,70.07
2022-09-06T13:08:47.919Z,70.38
2022-09-06T13:11:18.011Z,70.67
2022-09-06T13:13:49.293Z,72.15
2022-09-06T13:16:23.646Z,70.91
2022-09-06T13:18:52.900Z,71.32
2022-09-06T13:21:29.827Z,71.80
2022-09-06T13:23:59.262Z,70.34
2022-09-06T13:26:35.139Z,70.83
2022-09-06T13:29:13.836Z,71.32
2022-09-06T13:31:46.566Z,69.55
2022-09-06T13:34:21.880Z,70.67
2022-09-06T13:36:50.737Z,70.13
2022-09-06T13:39:31.666Z,69.25
2022-09-06T13:42:03.704Z,68.99
2022-09-06T13:44:32.631Z,68.42
2022-09-06T13:47:02.269Z,68.46
2022-09-06T13:49:30.515Z,68.81
2022-09-06T13:52:02.109Z,69.02
2022-09-06T13:54:31.055Z,68.91
2022-09-06T13:56:59.240Z,69.90
2022-09-06T13:59:27.355Z,69.63
2022-09-06T14:02:02.538Z,69.85
2022-09-06T14:04:32.018Z,70.10
2022-09-06T14:07:00.348Z,69.81
2022-09-06T14:09:28.628Z,71.09
2022-09-06T14:12:34.728Z,70.54
2022-09-06T14:15:03.043Z,70.69
2022-09-06T14:17:34.114Z,69.66
2022-09-06T14:20:02.362Z,69.95
2022-09-06T14:22:31.742Z,71.52
2022-09-06T14:25:00.062Z,71.80
2022-09-06T14:27:35.508Z,71.48
2022-09-06T14:30:03.655Z,74.24
2022-09-06T14:32:33.280Z,73.63
2022-09-06T14:35:02.319Z,75.13
2022-09-06T14:37:33.224Z,72.96
2022-09-06T14:40:26.309Z,75.15
2022-09-06T14:42:54.608Z,74.82
2022-09-06T14:45:22.879Z,73.98
2022-09-06T14:47:52.686Z,75.58
2022-09-06T14:50:20.933Z,80.51
2022-09-06T14:52:49.570Z,74.65
2022-09-06T14:55:17.967Z,73.91
2022-09-06T14:57:47.079Z,73.89
2022-09-06T15:00:16.019Z,73.93
2022-09-06T15:02:44.463Z,72.75
2022-09-06T15:05:14.126Z,74.10
2022-09-06T15:07:42.487Z,72.21
2022-09-06T15:10:11.355Z,72.38
2022-09-06T15:12:39.594Z,71.51
2022-09-06T15:15:08.430Z,75.14
2022-09-06T15:17:36.954Z,75.44
2022-09-06T15:20:05.988Z,72.47
2022-09-06T15:22:36.733Z,71.28
2022-09-06T15:25:06.353Z,71.57
2022-09-06T15:27:34.685Z,72.26
2022-09-06T15:30:03.012Z,75.12
2022-09-06T15:32:31.947Z,73.24
2022-09-06T15:35:04.482Z,71.59
2022-09-06T15:37:33.279Z,71.12
2022-09-06T15:40:03.325Z,70.43
2022-09-06T15:42:34.278Z,71.67
2022-09-06T15:45:02.725Z,72.58
2022-09-06T15:47:31.395Z,74.82
2022-09-06T15:49:59.757Z,71.44
2022-09-06T15:52:28.043Z,74.32
2022-09-06T15:55:13.497Z,73.80
2022-09-06T15:57:43.540Z,76.76
2022-09-06T16:00:13.669Z,74.60
2022-09-06T16:02:42.759Z,75.33
2022-09-06T16:05:11.082Z,73.14
2022-09-06T16:07:43.275Z,73.81
2022-09-06T16:10:14.109Z,74.58
2022-09-06T16:12:46.417Z,73.39
2022-09-06T16:15:16.935Z,73.47
2022-09-06T16:17:45.362Z,74.74
2022-09-06T16:20:13.599Z,74.92
2022-09-06T16:22:42.065Z,75.18
2022-09-06T16:25:10.765Z,75.35
2022-09-06T16:27:39.259Z,77.69
2022-09-06T16:30:11.013Z,76.18
2022-09-06T16:32:39.252Z,76.26
2022-09-06T16:35:08.223Z,76.25
2022-09-06T16:37:36.621Z,76.33
2022-09-06T16:40:05.408Z,77.18
2022-09-06T16:42:33.772Z,75.99
2022-09-06T16:45:02.096Z,78.22
2022-09-06T16:47:32.644Z,75.78
2022-09-06T16:50:00.871Z,74.93
2022-09-06T16:52:29.216Z,75.97
2022-09-06T16:54:57.451Z,75.08
2022-09-06T16:57:26.672Z,74.92
2022-09-06T16:59:55.004Z,76.60
2022-09-06T17:02:23.748Z,76.05
2022-09-06T17:04:54.000Z,73.50
2022-09-06T17:07:22.361Z,73.33
2022-09-06T17:09:50.743Z,72.22
2022-09-06T17:12:21.670Z,73.53
2022-09-06T17:14:49.977Z,75.93
2022-09-06T17:17:17.989Z,73.49
2022-09-06T17:19:46.664Z,71.32
2022-09-06T17:22:16.489Z,72.89
2022-09-06T17:24:44.913Z,69.40
2022-09-06T17:27:13.188Z,68.68
2022-09-06T17:29:41.584Z,68.11
2022-09-06T17:32:10.558Z,66.83
2022-09-06T17:34:39.662Z,68.28
2022-09-06T17:37:10.371Z,70.27
2022-09-06T17:39:40.544Z,70.02
2022-09-06T17:42:09.841Z,67.27
2022-09-06T17:44:38.274Z,66.83
2022-09-06T17:47:14.567Z,67.78
2022-09-06T17:49:43.242Z,68.04
2022-09-06T17:52:11.834Z,68.19
2022-09-06T17:54:41.478Z,66.63
2022-09-06T17:57:09.797Z,66.00
2022-09-06T17:59:38.610Z,71.78
2022-09-06T18:02:06.949Z,71.62
2022-09-06T18:04:35.481Z,68.22
2022-09-06T18:07:04.323Z,70.20
2022-09-06T18:09:32.607Z,66.27
2022-09-06T18:12:02.364Z,67.11
2022-09-06T18:14:30.774Z,69.87
2022-09-06T18:16:59.065Z,66.69
2022-09-06T18:19:28.342Z,68.33
2022-09-06T18:21:57.420Z,73.58
2022-09-06T18:24:25.874Z,66.45
2022-09-06T18:26:54.195Z,68.90
2022-09-06T18:29:24.021Z,69.41
2022-09-06T18:31:53.867Z,68.01
2022-09-06T18:34:22.565Z,66.53
2022-09-06T18:36:50.844Z,67.71
2022-09-06T18:39:20.576Z,67.38
2022-09-06T18:42:07.206Z,67.46
2022-09-06T18:44:37.146Z,67.38
2022-09-06T18:47:07.171Z,67.87
2022-09-06T18:49:38.512Z,68.06
2022-09-06T18:52:09.038Z,68.72
2022-09-06T18:54:39.094Z,68.77
2022-09-06T18:57:07.344Z,69.35
2022-09-06T18:59:38.473Z,69.07
2022-09-06T19:02:08.016Z,68.70
2022-09-06T19:04:36.285Z,69.70
2022-09-06T19:07:05.148Z,69.87
2022-09-06T19:09:36.306Z,69.84
2022-09-06T19:12:05.097Z,69.17
2022-09-06T19:14:33.799Z,69.51
2022-09-06T19:17:03.425Z,69.24
2022-09-06T19:19:31.830Z,69.22
2022-09-06T19:22:00.079Z,69.57
2022-09-06T19:24:28.305Z,69.84
2022-09-06T19:26:56.712Z,70.13
2022-09-06T19:29:24.932Z,69.80
2022-09-06T19:31:54.597Z,70.93
2022-09-06T19:34:24.576Z,71.14
2022-09-06T19:36:55.342Z,71.25
2022-09-06T19:39:23.710Z,71.91
2022-09-06T19:41:52.341Z,71.79
2022-09-06T19:44:20.841Z,70.96
2022-09-06T19:46:49.183Z,70.85
2022-09-06T19:49:19.404Z,70.82
2022-09-06T19:51:50.981Z,70.94
2022-09-06T19:54:19.803Z,71.87
2022-09-06T19:56:48.156Z,71.54
2022-09-06T19:59:17.819Z,71.37
2022-09-06T20:01:49.729Z,71.42
2022-09-06T20:04:18.089Z,71.46
2022-09-06T20:06:46.815Z,71.64
2022-09-06T20:09:17.172Z,71.85
2022-09-06T20:11:46.473Z,71.47
2022-09-06T20:14:16.825Z,71.44
2022-09-06T20:16:46.911Z,71.79
2022-09-06T20:19:15.950Z,71.50
2022-09-06T20:21:44.666Z,71.63
2022-09-06T20:24:12.881Z,71.75
2022-09-06T20:26:42.524Z,71.90
2022-09-06T20:29:11.261Z,71.48
2022-09-06T20:31:40.415Z,71.98
2022-09-06T20:34:11.684Z,72.57
2022-09-06T20:36:39.913Z,73.54
2022-09-06T20:39:08.150Z,73.37
2022-09-06T20:41:36.514Z,73.66
2022-09-06T20:44:06.136Z,73.96
2022-09-06T20:46:36.323Z,75.48
2022-09-06T20:49:05.485Z,75.83
2022-09-06T20:51:34.510Z,75.90
2022-09-06T20:54:04.476Z,75.82
2022-09-06T20:56:33.986Z,75.31
2022-09-06T20:59:04.351Z,76.98
2022-09-06T21:01:35.956Z,76.47
2022-09-06T21:04:06.118Z,77.28
2022-09-06T21:06:36.302Z,77.62
2022-09-06T21:09:05.702Z,78.77
2022-09-06T21:11:34.442Z,77.27
2022-09-06T21:14:02.805Z,77.97
2022-09-06T21:16:31.672Z,77.17
2022-09-06T21:19:03.211Z,76.51
2022-09-06T21:21:32.705Z,77.30
2022-09-06T21:24:01.700Z,76.26
2022-09-06T21:26:30.721Z,76.66
2022-09-06T21:29:00.660Z,76.79
2022-09-06T21:31:30.389Z,76.42
2022-09-06T21:33:59.608Z,76.21
2022-09-06T21:36:30.669Z,75.83
2022-09-06T21:39:02.875Z,76.07
2022-09-06T21:41:31.892Z,75.47
2022-09-06T21:44:01.266Z,74.50
2022-09-06T21:46:33.076Z,74.87
2022-09-06T21:49:07.232Z,74.76
2022-09-06T21:51:37.166Z,75.08
2022-09-06T21:54:06.281Z,74.99
2022-09-06T21:56:36.063Z,73.54
2022-09-06T21:59:05.388Z,73.99
2022-09-06T22:01:35.396Z,74.51
2022-09-06T22:04:06.212Z,73.60
2022-09-06T22:06:39.477Z,73.48
2022-09-06T22:09:11.352Z,74.13
2022-09-06T22:11:40.616Z,73.85
2022-09-06T22:14:10.794Z,73.58
2022-09-06T22:16:40.356Z,73.43
2022-09-06T22:19:10.215Z,73.73
2022-09-06T22:21:40.065Z,73.49
2022-09-06T22:24:09.965Z,73.12
2022-09-06T22:26:40.011Z,73.48
2022-09-06T22:29:10.172Z,73.67
2022-09-06T22:31:39.173Z,74.09
2022-09-06T22:34:07.748Z,74.25
2022-09-06T22:36:36.493Z,73.61
2022-09-06T22:39:06.395Z,74.22
2022-09-06T22:41:35.218Z,74.16
2022-09-06T22:44:04.620Z,73.66
2022-09-06T22:46:33.251Z,74.77
2022-09-06T22:49:02.374Z,75.77
2022-09-06T22:51:30.989Z,74.64
2022-09-06T22:53:59.220Z,75.00
2022-09-06T22:56:28.820Z,74.64
2022-09-06T22:58:57.193Z,74.94
2022-09-06T23:01:25.430Z,74.64
2022-09-06T23:03:53.666Z,74.52
2022-09-06T23:06:22.581Z,75.07
2022-09-06T23:08:50.831Z,74.13
2022-09-06T23:11:20.341Z,74.07
2022-09-06T23:13:50.126Z,74.02
2022-09-06T23:16:19.923Z,74.09
2022-09-06T23:18:48.726Z,74.24
2022-09-06T23:21:19.390Z,75.81
2022-09-06T23:23:48.625Z,76.24
2022-09-06T23:26:19.175Z,77.39
2022-09-06T23:28:47.705Z,77.54
2022-09-06T23:31:17.413Z,78.73
2022-09-06T23:33:45.750Z,79.81
2022-09-06T23:36:15.081Z,79.33
2022-09-06T23:38:43.961Z,80.08
2022-09-06T23:41:14.600Z,80.55
2022-09-06T23:43:44.315Z,79.33
2022-09-06T23:46:14.796Z,79.78
2022-09-06T23:48:44.559Z,80.65
2022-09-06T23:51:13.213Z,80.77
2022-09-06T23:53:41.676Z,81.42
2022-09-06T23:56:10.460Z,82.15
2022-09-06T23:58:39.285Z,82.32
